sensor_id;sensor_type;location;lat;lon;timestamp;temperature;humidity
2391;DHT22;22957;50.824;4.360;2022-11-23T00:02:24;11.60;99.90
2391;DHT22;22957;50.824;4.360;2022-11-23T00:04:49;11.60;99.90
2391;DHT22;22957;50.824;4.360;2022-11-23T00:07:15;11.90;99.90
2391;DHT22;22957;50.824;4.360;2022-11-23T00:09:41;11.80;99.90
2391;DHT22;22957;50.824;4.360;2022-11-23T00:12:07;11.80;99.90
2391;DHT22;22957;50.824;4.360;2022-11-23T00:14:32;11.60;99.90
2391;DHT22;22957;50.824;4.360;2022-11-23T00:16:58;11.70;99.90
2391;DHT22;22957;50.824;4.360;2022-11-23T00:19:24;11.70;99.90
2391;DHT22;22957;50.824;4.360;2022-11-23T00:21:49;11.90;99.90
2391;DHT22;22957;50.824;4.360;2022-11-23T00:24:15;11.70;99.90
2391;DHT22;22957;50.824;4.360;2022-11-23T00:26:40;11.50;99.90
2391;DHT22;22957;50.824;4.360;2022-11-23T00:29:06;11.40;99.90
2391;DHT22;22957;50.824;4.360;2022-11-23T00:31:32;11.60;99.90
2391;DHT22;22957;50.824;4.360;2022-11-23T00:33:58;11.60;99.90
2391;DHT22;22957;50.824;4.360;2022-11-23T00:36:26;11.10;99.90
2391;DHT22;22957;50.824;4.360;2022-11-23T00:38:52;11.60;99.90
2391;DHT22;22957;50.824;4.360;2022-11-23T00:41:23;11.90;99.90
2391;DHT22;22957;50.824;4.360;2022-11-23T00:43:49;11.80;99.90
2391;DHT22;22957;50.824;4.360;2022-11-23T00:46:17;11.90;99.90
2391;DHT22;22957;50.824;4.360;2022-11-23T00:48:46;12.00;99.90
2391;DHT22;22957;50.824;4.360;2022-11-23T00:51:23;12.00;99.90
2391;DHT22;22957;50.824;4.360;2022-11-23T00:53:50;11.70;99.90
2391;DHT22;22957;50.824;4.360;2022-11-23T00:56:16;11.90;99.90
2391;DHT22;22957;50.824;4.360;2022-11-23T00:58:49;11.70;99.90
2391;DHT22;22957;50.824;4.360;2022-11-23T01:01:17;11.90;99.90
2391;DHT22;22957;50.824;4.360;2022-11-23T01:03:46;11.60;99.90
2391;DHT22;22957;50.824;4.360;2022-11-23T01:06:14;11.50;99.90
2391;DHT22;22957;50.824;4.360;2022-11-23T01:08:41;11.70;99.90
2391;DHT22;22957;50.824;4.360;2022-11-23T01:11:10;11.30;99.90
2391;DHT22;22957;50.824;4.360;2022-11-23T01:13:37;11.50;99.90
2391;DHT22;22957;50.824;4.360;2022-11-23T01:16:03;11.70;99.90
2391;DHT22;22957;50.824;4.360;2022-11-23T01:18:29;11.80;99.90
2391;DHT22;22957;50.824;4.360;2022-11-23T01:20:54;11.70;99.90
2391;DHT22;22957;50.824;4.360;2022-11-23T01:23:20;11.80;99.90
2391;DHT22;22957;50.824;4.360;2022-11-23T01:25:46;11.50;99.90
2391;DHT22;22957;50.824;4.360;2022-11-23T01:28:12;11.80;99.90
2391;DHT22;22957;50.824;4.360;2022-11-23T01:30:38;11.60;99.90
2391;DHT22;22957;50.824;4.360;2022-11-23T01:33:04;11.40;99.90
2391;DHT22;22957;50.824;4.360;2022-11-23T01:35:29;12.00;99.90
2391;DHT22;22957;50.824;4.360;2022-11-23T01:37:55;11.70;99.90
2391;DHT22;22957;50.824;4.360;2022-11-23T01:40:21;11.70;99.90
2391;DHT22;22957;50.824;4.360;2022-11-23T01:45:41;11.70;99.90
2391;DHT22;22957;50.824;4.360;2022-11-23T01:48:20;11.90;99.90
2391;DHT22;22957;50.824;4.360;2022-11-23T01:50:49;11.80;99.90
2391;DHT22;22957;50.824;4.360;2022-11-23T01:53:16;11.60;99.90
2391;DHT22;22957;50.824;4.360;2022-11-23T01:55:44;11.70;99.90
2391;DHT22;22957;50.824;4.360;2022-11-23T01:58:13;11.60;99.90
2391;DHT22;22957;50.824;4.360;2022-11-23T02:00:39;11.80;99.90
2391;DHT22;22957;50.824;4.360;2022-11-23T02:03:06;11.90;99.90
2391;DHT22;22957;50.824;4.360;2022-11-23T02:05:49;11.60;99.90
2391;DHT22;22957;50.824;4.360;2022-11-23T02:08:19;11.90;99.90
2391;DHT22;22957;50.824;4.360;2022-11-23T02:10:45;11.80;99.90
2391;DHT22;22957;50.824;4.360;2022-11-23T02:13:12;11.80;99.90
2391;DHT22;22957;50.824;4.360;2022-11-23T02:15:38;11.80;99.90
2391;DHT22;22957;50.824;4.360;2022-11-23T02:18:26;12.10;99.90
2391;DHT22;22957;50.824;4.360;2022-11-23T02:20:54;11.80;99.90
2391;DHT22;22957;50.824;4.360;2022-11-23T02:23:32;11.40;99.90
2391;DHT22;22957;50.824;4.360;2022-11-23T02:28:35;11.80;99.90
2391;DHT22;22957;50.824;4.360;2022-11-23T02:31:01;11.50;99.90
2391;DHT22;22957;50.824;4.360;2022-11-23T02:33:28;11.90;99.90
2391;DHT22;22957;50.824;4.360;2022-11-23T02:35:59;11.50;99.90
2391;DHT22;22957;50.824;4.360;2022-11-23T02:38:30;11.90;99.90
2391;DHT22;22957;50.824;4.360;2022-11-23T02:40:57;11.90;99.90
2391;DHT22;22957;50.824;4.360;2022-11-23T02:43:24;11.80;99.90
2391;DHT22;22957;50.824;4.360;2022-11-23T02:45:53;11.50;99.90
2391;DHT22;22957;50.824;4.360;2022-11-23T02:48:19;11.40;99.90
2391;DHT22;22957;50.824;4.360;2022-11-23T02:50:45;11.30;99.90
2391;DHT22;22957;50.824;4.360;2022-11-23T02:53:11;11.80;99.90
2391;DHT22;22957;50.824;4.360;2022-11-23T02:55:37;11.50;99.90
2391;DHT22;22957;50.824;4.360;2022-11-23T02:58:04;11.40;99.90
2391;DHT22;22957;50.824;4.360;2022-11-23T03:00:30;11.20;99.90
2391;DHT22;22957;50.824;4.360;2022-11-23T03:02:57;11.50;99.90
2391;DHT22;22957;50.824;4.360;2022-11-23T03:05:24;11.90;99.90
2391;DHT22;22957;50.824;4.360;2022-11-23T03:07:50;11.60;99.90
2391;DHT22;22957;50.824;4.360;2022-11-23T03:10:16;11.40;99.90
2391;DHT22;22957;50.824;4.360;2022-11-23T03:12:42;11.60;99.90
2391;DHT22;22957;50.824;4.360;2022-11-23T03:15:09;11.40;99.90
2391;DHT22;22957;50.824;4.360;2022-11-23T03:17:38;11.40;99.90
2391;DHT22;22957;50.824;4.360;2022-11-23T03:20:04;11.60;99.90
2391;DHT22;22957;50.824;4.360;2022-11-23T03:22:30;11.50;99.90
2391;DHT22;22957;50.824;4.360;2022-11-23T03:24:55;11.40;99.90
2391;DHT22;22957;50.824;4.360;2022-11-23T03:27:22;11.50;99.90
2391;DHT22;22957;50.824;4.360;2022-11-23T03:29:48;11.50;99.90
2391;DHT22;22957;50.824;4.360;2022-11-23T03:32:14;11.50;99.90
2391;DHT22;22957;50.824;4.360;2022-11-23T03:34:39;11.30;99.90
2391;DHT22;22957;50.824;4.360;2022-11-23T03:37:05;11.50;99.90
2391;DHT22;22957;50.824;4.360;2022-11-23T03:39:31;11.50;99.90
2391;DHT22;22957;50.824;4.360;2022-11-23T03:41:56;11.50;99.90
2391;DHT22;22957;50.824;4.360;2022-11-23T03:44:22;11.30;99.90
2391;DHT22;22957;50.824;4.360;2022-11-23T03:46:47;11.40;99.90
2391;DHT22;22957;50.824;4.360;2022-11-23T03:49:15;11.30;99.90
2391;DHT22;22957;50.824;4.360;2022-11-23T03:51:40;11.40;99.90
2391;DHT22;22957;50.824;4.360;2022-11-23T03:54:06;11.30;99.90
2391;DHT22;22957;50.824;4.360;2022-11-23T03:56:32;11.40;99.90
2391;DHT22;22957;50.824;4.360;2022-11-23T03:58:57;11.40;99.90
2391;DHT22;22957;50.824;4.360;2022-11-23T04:01:23;11.30;99.90
2391;DHT22;22957;50.824;4.360;2022-11-23T04:03:49;11.40;99.90
2391;DHT22;22957;50.824;4.360;2022-11-23T04:06:14;11.00;99.90
2391;DHT22;22957;50.824;4.360;2022-11-23T04:08:40;11.40;99.90
2391;DHT22;22957;50.824;4.360;2022-11-23T04:11:05;11.50;99.90
2391;DHT22;22957;50.824;4.360;2022-11-23T04:13:31;11.40;99.90
2391;DHT22;22957;50.824;4.360;2022-11-23T04:15:57;11.20;99.90
2391;DHT22;22957;50.824;4.360;2022-11-23T04:18:22;11.30;99.90
2391;DHT22;22957;50.824;4.360;2022-11-23T04:20:48;11.50;99.90
2391;DHT22;22957;50.824;4.360;2022-11-23T04:23:14;11.10;99.90
2391;DHT22;22957;50.824;4.360;2022-11-23T04:25:39;11.00;99.90
2391;DHT22;22957;50.824;4.360;2022-11-23T04:28:05;11.00;99.90
2391;DHT22;22957;50.824;4.360;2022-11-23T04:30:30;11.40;99.90
2391;DHT22;22957;50.824;4.360;2022-11-23T04:32:56;11.10;99.90
2391;DHT22;22957;50.824;4.360;2022-11-23T04:35:22;11.10;99.90
2391;DHT22;22957;50.824;4.360;2022-11-23T04:37:47;11.10;99.90
2391;DHT22;22957;50.824;4.360;2022-11-23T04:40:13;10.90;99.90
2391;DHT22;22957;50.824;4.360;2022-11-23T04:42:39;11.20;99.90
2391;DHT22;22957;50.824;4.360;2022-11-23T04:45:04;11.40;99.90
2391;DHT22;22957;50.824;4.360;2022-11-23T04:47:32;11.20;99.90
2391;DHT22;22957;50.824;4.360;2022-11-23T04:49:57;10.90;99.90
2391;DHT22;22957;50.824;4.360;2022-11-23T04:52:23;10.80;99.90
2391;DHT22;22957;50.824;4.360;2022-11-23T04:54:49;11.00;99.90
2391;DHT22;22957;50.824;4.360;2022-11-23T04:57:14;11.00;99.90
2391;DHT22;22957;50.824;4.360;2022-11-23T04:59:40;11.00;99.90
2391;DHT22;22957;50.824;4.360;2022-11-23T05:02:05;10.60;99.90
2391;DHT22;22957;50.824;4.360;2022-11-23T05:04:32;10.70;99.90
2391;DHT22;22957;50.824;4.360;2022-11-23T05:06:59;10.70;99.90
2391;DHT22;22957;50.824;4.360;2022-11-23T05:09:24;10.30;99.90
2391;DHT22;22957;50.824;4.360;2022-11-23T05:11:50;10.40;99.90
2391;DHT22;22957;50.824;4.360;2022-11-23T05:14:16;10.50;99.90
2391;DHT22;22957;50.824;4.360;2022-11-23T05:16:41;10.30;99.90
2391;DHT22;22957;50.824;4.360;2022-11-23T05:19:07;10.30;99.90
2391;DHT22;22957;50.824;4.360;2022-11-23T05:21:33;9.90;99.90
2391;DHT22;22957;50.824;4.360;2022-11-23T05:23:59;10.00;99.90
2391;DHT22;22957;50.824;4.360;2022-11-23T05:26:24;10.00;99.90
2391;DHT22;22957;50.824;4.360;2022-11-23T05:28:50;10.00;99.90
2391;DHT22;22957;50.824;4.360;2022-11-23T05:31:16;10.20;99.90
2391;DHT22;22957;50.824;4.360;2022-11-23T05:33:41;10.00;99.90
2391;DHT22;22957;50.824;4.360;2022-11-23T05:36:08;9.90;99.90
2391;DHT22;22957;50.824;4.360;2022-11-23T05:38:34;10.10;99.90
2391;DHT22;22957;50.824;4.360;2022-11-23T05:41:00;10.20;99.90
2391;DHT22;22957;50.824;4.360;2022-11-23T05:43:25;9.70;99.90
2391;DHT22;22957;50.824;4.360;2022-11-23T05:45:51;10.00;99.90
2391;DHT22;22957;50.824;4.360;2022-11-23T05:48:17;10.20;99.90
2391;DHT22;22957;50.824;4.360;2022-11-23T05:50:43;9.90;99.90
2391;DHT22;22957;50.824;4.360;2022-11-23T05:53:08;10.00;99.90
2391;DHT22;22957;50.824;4.360;2022-11-23T05:55:34;9.50;99.90
2391;DHT22;22957;50.824;4.360;2022-11-23T05:58:00;9.70;99.90
2391;DHT22;22957;50.824;4.360;2022-11-23T06:00:26;9.80;99.90
2391;DHT22;22957;50.824;4.360;2022-11-23T06:02:52;10.00;99.90
2391;DHT22;22957;50.824;4.360;2022-11-23T06:05:22;9.50;99.90
2391;DHT22;22957;50.824;4.360;2022-11-23T06:07:51;9.50;99.90
2391;DHT22;22957;50.824;4.360;2022-11-23T06:10:17;9.60;99.90
2391;DHT22;22957;50.824;4.360;2022-11-23T06:12:42;9.50;99.90
2391;DHT22;22957;50.824;4.360;2022-11-23T06:15:10;9.50;99.90
2391;DHT22;22957;50.824;4.360;2022-11-23T06:17:36;9.50;99.90
2391;DHT22;22957;50.824;4.360;2022-11-23T06:20:02;9.50;99.90
2391;DHT22;22957;50.824;4.360;2022-11-23T06:22:28;9.80;99.90
2391;DHT22;22957;50.824;4.360;2022-11-23T06:24:54;9.60;99.90
2391;DHT22;22957;50.824;4.360;2022-11-23T06:27:20;9.70;99.90
2391;DHT22;22957;50.824;4.360;2022-11-23T06:29:45;9.50;99.90
2391;DHT22;22957;50.824;4.360;2022-11-23T06:32:11;9.50;99.90
2391;DHT22;22957;50.824;4.360;2022-11-23T06:34:37;9.50;99.90
2391;DHT22;22957;50.824;4.360;2022-11-23T06:37:02;9.60;99.90
2391;DHT22;22957;50.824;4.360;2022-11-23T06:39:28;9.50;99.90
2391;DHT22;22957;50.824;4.360;2022-11-23T06:41:54;9.50;99.90
2391;DHT22;22957;50.824;4.360;2022-11-23T06:44:19;9.60;99.90
2391;DHT22;22957;50.824;4.360;2022-11-23T06:46:45;9.80;99.90
2391;DHT22;22957;50.824;4.360;2022-11-23T06:49:11;9.30;99.90
2391;DHT22;22957;50.824;4.360;2022-11-23T06:51:36;9.60;99.90
2391;DHT22;22957;50.824;4.360;2022-11-23T06:54:02;9.60;99.90
2391;DHT22;22957;50.824;4.360;2022-11-23T06:56:30;9.30;99.90
2391;DHT22;22957;50.824;4.360;2022-11-23T06:58:56;9.10;99.90
2391;DHT22;22957;50.824;4.360;2022-11-23T07:01:25;9.20;99.90
2391;DHT22;22957;50.824;4.360;2022-11-23T07:03:50;9.40;99.90
2391;DHT22;22957;50.824;4.360;2022-11-23T07:06:16;8.90;99.90
2391;DHT22;22957;50.824;4.360;2022-11-23T07:08:42;9.20;99.90
2391;DHT22;22957;50.824;4.360;2022-11-23T07:11:10;9.10;99.90
2391;DHT22;22957;50.824;4.360;2022-11-23T07:13:36;8.90;99.90
2391;DHT22;22957;50.824;4.360;2022-11-23T07:16:01;8.90;99.90
2391;DHT22;22957;50.824;4.360;2022-11-23T07:18:28;8.60;99.90
2391;DHT22;22957;50.824;4.360;2022-11-23T07:20:56;8.80;99.90
2391;DHT22;22957;50.824;4.360;2022-11-23T07:23:22;8.70;99.90
2391;DHT22;22957;50.824;4.360;2022-11-23T07:25:48;8.90;99.90
2391;DHT22;22957;50.824;4.360;2022-11-23T07:28:14;8.80;99.90
2391;DHT22;22957;50.824;4.360;2022-11-23T07:30:39;9.00;99.90
2391;DHT22;22957;50.824;4.360;2022-11-23T07:33:09;9.00;99.90
2391;DHT22;22957;50.824;4.360;2022-11-23T07:35:37;9.10;99.90
2391;DHT22;22957;50.824;4.360;2022-11-23T07:38:03;9.40;99.90
2391;DHT22;22957;50.824;4.360;2022-11-23T07:40:32;9.50;99.90
2391;DHT22;22957;50.824;4.360;2022-11-23T07:43:00;9.50;99.90
2391;DHT22;22957;50.824;4.360;2022-11-23T07:45:27;9.70;99.90
2391;DHT22;22957;50.824;4.360;2022-11-23T07:47:57;9.10;99.90
2391;DHT22;22957;50.824;4.360;2022-11-23T07:50:23;8.90;99.90
2391;DHT22;22957;50.824;4.360;2022-11-23T07:52:49;9.40;99.90
2391;DHT22;22957;50.824;4.360;2022-11-23T07:55:15;9.30;99.90
2391;DHT22;22957;50.824;4.360;2022-11-23T07:57:41;9.30;99.90
2391;DHT22;22957;50.824;4.360;2022-11-23T08:00:07;9.20;99.90
2391;DHT22;22957;50.824;4.360;2022-11-23T08:02:33;9.40;99.90
2391;DHT22;22957;50.824;4.360;2022-11-23T08:04:58;9.40;99.90
2391;DHT22;22957;50.824;4.360;2022-11-23T08:07:24;9.10;99.90
2391;DHT22;22957;50.824;4.360;2022-11-23T08:09:50;9.20;99.90
2391;DHT22;22957;50.824;4.360;2022-11-23T08:12:15;9.40;99.90
2391;DHT22;22957;50.824;4.360;2022-11-23T08:14:41;9.50;99.90
2391;DHT22;22957;50.824;4.360;2022-11-23T08:17:07;9.20;99.90
2391;DHT22;22957;50.824;4.360;2022-11-23T08:19:33;9.30;99.90
2391;DHT22;22957;50.824;4.360;2022-11-23T08:21:58;9.90;99.90
2391;DHT22;22957;50.824;4.360;2022-11-23T08:24:24;9.50;99.90
2391;DHT22;22957;50.824;4.360;2022-11-23T08:26:50;9.50;99.90
2391;DHT22;22957;50.824;4.360;2022-11-23T08:29:16;9.60;99.90
2391;DHT22;22957;50.824;4.360;2022-11-23T08:31:41;9.70;99.90
2391;DHT22;22957;50.824;4.360;2022-11-23T08:34:08;9.90;99.90
2391;DHT22;22957;50.824;4.360;2022-11-23T08:36:34;10.00;99.90
2391;DHT22;22957;50.824;4.360;2022-11-23T08:38:59;10.10;99.90
2391;DHT22;22957;50.824;4.360;2022-11-23T08:41:25;10.00;99.90
2391;DHT22;22957;50.824;4.360;2022-11-23T08:43:51;9.70;99.90
2391;DHT22;22957;50.824;4.360;2022-11-23T08:46:17;10.20;99.90
2391;DHT22;22957;50.824;4.360;2022-11-23T08:48:44;9.90;99.90
2391;DHT22;22957;50.824;4.360;2022-11-23T08:51:10;10.10;99.90
2391;DHT22;22957;50.824;4.360;2022-11-23T08:53:36;10.00;99.90
2391;DHT22;22957;50.824;4.360;2022-11-23T08:56:04;10.40;99.90
2391;DHT22;22957;50.824;4.360;2022-11-23T08:58:30;9.90;99.90
2391;DHT22;22957;50.824;4.360;2022-11-23T09:00:56;9.90;99.90
2391;DHT22;22957;50.824;4.360;2022-11-23T09:03:22;10.10;99.90
2391;DHT22;22957;50.824;4.360;2022-11-23T09:05:48;10.00;99.90
2391;DHT22;22957;50.824;4.360;2022-11-23T09:08:15;9.90;99.90
2391;DHT22;22957;50.824;4.360;2022-11-23T09:10:41;10.20;99.90
2391;DHT22;22957;50.824;4.360;2022-11-23T09:13:07;10.40;99.90
2391;DHT22;22957;50.824;4.360;2022-11-23T09:15:35;10.20;99.90
2391;DHT22;22957;50.824;4.360;2022-11-23T09:18:01;10.40;99.90
2391;DHT22;22957;50.824;4.360;2022-11-23T09:20:27;11.00;99.90
2391;DHT22;22957;50.824;4.360;2022-11-23T09:22:53;11.00;99.90
2391;DHT22;22957;50.824;4.360;2022-11-23T09:25:20;11.00;99.90
2391;DHT22;22957;50.824;4.360;2022-11-23T09:27:47;10.40;99.90
2391;DHT22;22957;50.824;4.360;2022-11-23T09:30:13;10.90;99.90
2391;DHT22;22957;50.824;4.360;2022-11-23T09:32:39;11.20;99.90
2391;DHT22;22957;50.824;4.360;2022-11-23T09:35:05;11.00;99.90
2391;DHT22;22957;50.824;4.360;2022-11-23T09:37:31;11.40;99.90
2391;DHT22;22957;50.824;4.360;2022-11-23T09:39:57;11.80;99.90
2391;DHT22;22957;50.824;4.360;2022-11-23T09:48:24;11.30;99.90
2391;DHT22;22957;50.824;4.360;2022-11-23T09:51:06;11.70;99.90
2391;DHT22;22957;50.824;4.360;2022-11-23T09:53:45;11.40;99.90
2391;DHT22;22957;50.824;4.360;2022-11-23T09:56:27;10.40;99.90
2391;DHT22;22957;50.824;4.360;2022-11-23T09:58:56;10.70;99.90
2391;DHT22;22957;50.824;4.360;2022-11-23T10:01:23;11.40;99.90
2391;DHT22;22957;50.824;4.360;2022-11-23T10:03:55;11.30;99.90
2391;DHT22;22957;50.824;4.360;2022-11-23T10:06:24;11.10;99.90
2391;DHT22;22957;50.824;4.360;2022-11-23T10:22:32;11.10;99.90
2391;DHT22;22957;50.824;4.360;2022-11-23T10:25:02;11.20;99.90
2391;DHT22;22957;50.824;4.360;2022-11-23T10:27:32;11.70;99.90
2391;DHT22;22957;50.824;4.360;2022-11-23T10:29:58;12.20;99.90
2391;DHT22;22957;50.824;4.360;2022-11-23T10:35:14;12.10;99.90
2391;DHT22;22957;50.824;4.360;2022-11-23T10:37:40;11.50;99.90
2391;DHT22;22957;50.824;4.360;2022-11-23T10:40:16;11.90;99.90
2391;DHT22;22957;50.824;4.360;2022-11-23T10:42:51;11.60;99.90
2391;DHT22;22957;50.824;4.360;2022-11-23T10:45:23;11.70;99.90
2391;DHT22;22957;50.824;4.360;2022-11-23T10:47:57;11.70;99.90
2391;DHT22;22957;50.824;4.360;2022-11-23T10:50:32;11.60;99.90
2391;DHT22;22957;50.824;4.360;2022-11-23T10:55:47;12.00;99.90
2391;DHT22;22957;50.824;4.360;2022-11-23T10:58:32;12.00;99.90
2391;DHT22;22957;50.824;4.360;2022-11-23T11:01:11;12.10;99.90
2391;DHT22;22957;50.824;4.360;2022-11-23T11:03:39;11.50;99.90
2391;DHT22;22957;50.824;4.360;2022-11-23T11:06:05;11.90;99.90
2391;DHT22;22957;50.824;4.360;2022-11-23T11:08:36;12.10;99.90
2391;DHT22;22957;50.824;4.360;2022-11-23T11:11:28;11.80;99.90
2391;DHT22;22957;50.824;4.360;2022-11-23T11:14:15;11.70;99.90
2391;DHT22;22957;50.824;4.360;2022-11-23T11:16:49;11.80;99.90
2391;DHT22;22957;50.824;4.360;2022-11-23T11:19:33;11.90;99.90
2391;DHT22;22957;50.824;4.360;2022-11-23T11:22:03;12.00;99.90
2391;DHT22;22957;50.824;4.360;2022-11-23T11:24:36;12.00;99.90
2391;DHT22;22957;50.824;4.360;2022-11-23T11:27:05;12.40;99.90
2391;DHT22;22957;50.824;4.360;2022-11-23T11:29:46;12.40;99.90
2391;DHT22;22957;50.824;4.360;2022-11-23T11:35:25;12.10;99.90
2391;DHT22;22957;50.824;4.360;2022-11-23T11:38:17;12.40;99.90
2391;DHT22;22957;50.824;4.360;2022-11-23T11:40:49;12.60;99.90
2391;DHT22;22957;50.824;4.360;2022-11-23T11:45:55;12.90;99.90
2391;DHT22;22957;50.824;4.360;2022-11-23T11:48:48;12.90;99.90
2391;DHT22;22957;50.824;4.360;2022-11-23T11:51:27;12.40;99.90
2391;DHT22;22957;50.824;4.360;2022-11-23T11:56:53;13.00;99.90
2391;DHT22;22957;50.824;4.360;2022-11-23T11:59:36;12.80;99.90
2391;DHT22;22957;50.824;4.360;2022-11-23T12:02:25;12.70;99.90
2391;DHT22;22957;50.824;4.360;2022-11-23T12:05:13;12.20;99.90
2391;DHT22;22957;50.824;4.360;2022-11-23T12:08:01;12.20;99.90
2391;DHT22;22957;50.824;4.360;2022-11-23T12:10:50;12.40;99.90
2391;DHT22;22957;50.824;4.360;2022-11-23T12:13:20;12.60;99.90
2391;DHT22;22957;50.824;4.360;2022-11-23T12:21:57;12.10;99.90
2391;DHT22;22957;50.824;4.360;2022-11-23T12:33:37;12.00;99.90
2391;DHT22;22957;50.824;4.360;2022-11-23T12:36:19;11.80;99.90
2391;DHT22;22957;50.824;4.360;2022-11-23T12:39:43;11.90;99.90
2391;DHT22;22957;50.824;4.360;2022-11-23T12:42:45;11.80;99.90
2391;DHT22;22957;50.824;4.360;2022-11-23T12:57:23;11.80;99.90
2391;DHT22;22957;50.824;4.360;2022-11-23T13:00:00;11.60;99.90
2391;DHT22;22957;50.824;4.360;2022-11-23T13:08:30;10.80;99.90
2391;DHT22;22957;50.824;4.360;2022-11-23T13:11:26;10.70;99.90
2391;DHT22;22957;50.824;4.360;2022-11-23T13:14:03;10.90;99.90
2391;DHT22;22957;50.824;4.360;2022-11-23T13:22:10;10.70;99.90
2391;DHT22;22957;50.824;4.360;2022-11-23T13:24:38;10.80;99.90
2391;DHT22;22957;50.824;4.360;2022-11-23T13:40:33;10.80;99.90
2391;DHT22;22957;50.824;4.360;2022-11-23T13:43:02;11.00;99.90
2391;DHT22;22957;50.824;4.360;2022-11-23T13:45:31;10.80;99.90
2391;DHT22;22957;50.824;4.360;2022-11-23T13:48:14;10.80;99.90
2391;DHT22;22957;50.824;4.360;2022-11-23T13:53:24;11.00;99.90
2391;DHT22;22957;50.824;4.360;2022-11-23T13:55:56;10.80;99.90
2391;DHT22;22957;50.824;4.360;2022-11-23T14:00:52;10.70;99.90
2391;DHT22;22957;50.824;4.360;2022-11-23T14:11:28;10.60;99.90
2391;DHT22;22957;50.824;4.360;2022-11-23T14:14:00;10.60;99.90
2391;DHT22;22957;50.824;4.360;2022-11-23T14:17:00;10.70;99.90
2391;DHT22;22957;50.824;4.360;2022-11-23T14:22:43;10.60;99.90
2391;DHT22;22957;50.824;4.360;2022-11-23T14:28:11;10.50;99.90
2391;DHT22;22957;50.824;4.360;2022-11-23T14:36:43;11.00;99.90
2391;DHT22;22957;50.824;4.360;2022-11-23T14:41:42;11.00;99.90
2391;DHT22;22957;50.824;4.360;2022-11-23T14:44:13;10.80;99.90
2391;DHT22;22957;50.824;4.360;2022-11-23T14:46:58;10.80;99.90
2391;DHT22;22957;50.824;4.360;2022-11-23T14:49:24;10.60;99.90
2391;DHT22;22957;50.824;4.360;2022-11-23T14:51:50;10.70;99.90
2391;DHT22;22957;50.824;4.360;2022-11-23T14:54:16;10.90;99.90
2391;DHT22;22957;50.824;4.360;2022-11-23T14:56:53;10.90;99.90
2391;DHT22;22957;50.824;4.360;2022-11-23T15:02:17;11.30;99.90
2391;DHT22;22957;50.824;4.360;2022-11-23T15:05:14;11.00;99.90
2391;DHT22;22957;50.824;4.360;2022-11-23T15:08:03;11.40;99.90
2391;DHT22;22957;50.824;4.360;2022-11-23T15:11:17;11.40;99.90
2391;DHT22;22957;50.824;4.360;2022-11-23T15:13:48;11.40;99.90
2391;DHT22;22957;50.824;4.360;2022-11-23T15:16:16;11.50;99.90
2391;DHT22;22957;50.824;4.360;2022-11-23T15:18:42;11.30;99.90
2391;DHT22;22957;50.824;4.360;2022-11-23T15:23:39;11.20;99.90
2391;DHT22;22957;50.824;4.360;2022-11-23T15:26:20;11.40;99.90
2391;DHT22;22957;50.824;4.360;2022-11-23T15:28:47;11.70;99.90
2391;DHT22;22957;50.824;4.360;2022-11-23T15:31:32;11.70;99.90
2391;DHT22;22957;50.824;4.360;2022-11-23T15:34:11;11.50;99.90
2391;DHT22;22957;50.824;4.360;2022-11-23T15:36:39;11.20;99.90
2391;DHT22;22957;50.824;4.360;2022-11-23T15:39:05;11.60;99.90
2391;DHT22;22957;50.824;4.360;2022-11-23T15:41:36;11.60;99.90
2391;DHT22;22957;50.824;4.360;2022-11-23T15:44:22;11.10;99.90
2391;DHT22;22957;50.824;4.360;2022-11-23T15:46:54;11.30;99.90
2391;DHT22;22957;50.824;4.360;2022-11-23T15:49:23;11.30;99.90
2391;DHT22;22957;50.824;4.360;2022-11-23T15:51:49;11.00;99.90
2391;DHT22;22957;50.824;4.360;2022-11-23T15:54:22;11.20;99.90
2391;DHT22;22957;50.824;4.360;2022-11-23T15:56:52;11.50;99.90
2391;DHT22;22957;50.824;4.360;2022-11-23T16:01:53;10.80;99.90
2391;DHT22;22957;50.824;4.360;2022-11-23T16:06:51;10.90;99.90
2391;DHT22;22957;50.824;4.360;2022-11-23T16:09:41;11.00;99.90
2391;DHT22;22957;50.824;4.360;2022-11-23T16:12:29;10.70;99.90
2391;DHT22;22957;50.824;4.360;2022-11-23T16:14:58;10.80;99.90
2391;DHT22;22957;50.824;4.360;2022-11-23T16:17:43;10.70;99.90
2391;DHT22;22957;50.824;4.360;2022-11-23T16:20:14;10.80;99.90
2391;DHT22;22957;50.824;4.360;2022-11-23T16:22:47;10.70;99.90
2391;DHT22;22957;50.824;4.360;2022-11-23T16:25:33;10.90;99.90
2391;DHT22;22957;50.824;4.360;2022-11-23T16:30:37;10.70;99.90
2391;DHT22;22957;50.824;4.360;2022-11-23T16:33:04;10.70;99.90
2391;DHT22;22957;50.824;4.360;2022-11-23T16:35:30;10.60;99.90
2391;DHT22;22957;50.824;4.360;2022-11-23T16:37:55;10.40;99.90
2391;DHT22;22957;50.824;4.360;2022-11-23T16:40:21;10.30;99.90
2391;DHT22;22957;50.824;4.360;2022-11-23T16:42:51;10.50;99.90
2391;DHT22;22957;50.824;4.360;2022-11-23T16:45:17;10.40;99.90
2391;DHT22;22957;50.824;4.360;2022-11-23T16:47:54;10.70;99.90
2391;DHT22;22957;50.824;4.360;2022-11-23T16:50:21;10.40;99.90
2391;DHT22;22957;50.824;4.360;2022-11-23T16:52:50;10.30;99.90
2391;DHT22;22957;50.824;4.360;2022-11-23T16:55:18;10.30;99.90
2391;DHT22;22957;50.824;4.360;2022-11-23T16:57:44;10.40;99.90
2391;DHT22;22957;50.824;4.360;2022-11-23T17:00:19;10.40;99.90
2391;DHT22;22957;50.824;4.360;2022-11-23T17:02:46;10.40;99.90
2391;DHT22;22957;50.824;4.360;2022-11-23T17:05:17;10.20;99.90
2391;DHT22;22957;50.824;4.360;2022-11-23T17:07:43;10.50;99.90
2391;DHT22;22957;50.824;4.360;2022-11-23T17:10:11;10.50;99.90
2391;DHT22;22957;50.824;4.360;2022-11-23T17:12:37;10.40;99.90
2391;DHT22;22957;50.824;4.360;2022-11-23T17:15:04;10.40;99.90
2391;DHT22;22957;50.824;4.360;2022-11-23T17:17:31;10.20;99.90
2391;DHT22;22957;50.824;4.360;2022-11-23T17:19:57;10.30;99.90
2391;DHT22;22957;50.824;4.360;2022-11-23T17:22:25;10.60;99.90
2391;DHT22;22957;50.824;4.360;2022-11-23T17:24:51;10.30;99.90
2391;DHT22;22957;50.824;4.360;2022-11-23T17:27:23;10.30;99.90
2391;DHT22;22957;50.824;4.360;2022-11-23T17:29:56;10.20;99.90
2391;DHT22;22957;50.824;4.360;2022-11-23T17:32:24;10.90;99.90
2391;DHT22;22957;50.824;4.360;2022-11-23T17:34:52;10.70;99.90
2391;DHT22;22957;50.824;4.360;2022-11-23T17:37:20;10.50;99.90
2391;DHT22;22957;50.824;4.360;2022-11-23T17:39:47;10.50;99.90
2391;DHT22;22957;50.824;4.360;2022-11-23T17:42:14;11.00;99.90
2391;DHT22;22957;50.824;4.360;2022-11-23T17:44:40;10.80;99.90
2391;DHT22;22957;50.824;4.360;2022-11-23T17:47:13;10.60;99.90
2391;DHT22;22957;50.824;4.360;2022-11-23T17:49:39;10.50;99.90
2391;DHT22;22957;50.824;4.360;2022-11-23T17:52:05;10.60;99.90
2391;DHT22;22957;50.824;4.360;2022-11-23T17:54:31;10.30;99.90
2391;DHT22;22957;50.824;4.360;2022-11-23T17:56:56;10.90;99.90
2391;DHT22;22957;50.824;4.360;2022-11-23T17:59:22;11.50;99.90
2391;DHT22;22957;50.824;4.360;2022-11-23T18:01:48;11.00;99.90
2391;DHT22;22957;50.824;4.360;2022-11-23T18:04:14;11.40;99.90
2391;DHT22;22957;50.824;4.360;2022-11-23T18:06:39;11.40;99.90
2391;DHT22;22957;50.824;4.360;2022-11-23T18:09:05;11.60;99.90
2391;DHT22;22957;50.824;4.360;2022-11-23T18:11:31;11.10;99.90
2391;DHT22;22957;50.824;4.360;2022-11-23T18:13:57;11.50;99.90
2391;DHT22;22957;50.824;4.360;2022-11-23T18:16:23;11.30;99.90